sensor_id;sensor_type;location;lat;lon;timestamp;temperature;humidity
15690;DHT22;7945;48.816;11.506;2022-12-11T00:01:08;2.50;99.90
15690;DHT22;7945;48.816;11.506;2022-12-11T00:03:36;2.50;99.90
15690;DHT22;7945;48.816;11.506;2022-12-11T00:06:06;2.50;99.90
15690;DHT22;7945;48.816;11.506;2022-12-11T00:08:32;2.40;99.90
15690;DHT22;7945;48.816;11.506;2022-12-11T00:10:59;2.40;99.90
15690;DHT22;7945;48.816;11.506;2022-12-11T00:13:26;2.40;99.90
15690;DHT22;7945;48.816;11.506;2022-12-11T00:15:53;2.30;99.90
15690;DHT22;7945;48.816;11.506;2022-12-11T00:18:20;2.40;99.90
15690;DHT22;7945;48.816;11.506;2022-12-11T00:20:47;2.30;99.90
15690;DHT22;7945;48.816;11.506;2022-12-11T00:23:15;2.30;99.90
15690;DHT22;7945;48.816;11.506;2022-12-11T00:25:43;2.30;99.90
15690;DHT22;7945;48.816;11.506;2022-12-11T00:28:10;2.40;99.90
15690;DHT22;7945;48.816;11.506;2022-12-11T00:30:38;2.40;99.90
15690;DHT22;7945;48.816;11.506;2022-12-11T00:33:05;2.30;99.90
15690;DHT22;7945;48.816;11.506;2022-12-11T00:35:32;2.40;99.90
15690;DHT22;7945;48.816;11.506;2022-12-11T00:37:59;2.40;99.90
15690;DHT22;7945;48.816;11.506;2022-12-11T00:40:27;2.30;99.90
15690;DHT22;7945;48.816;11.506;2022-12-11T00:42:53;2.30;99.90
15690;DHT22;7945;48.816;11.506;2022-12-11T00:45:20;2.30;99.90
15690;DHT22;7945;48.816;11.506;2022-12-11T00:47:47;2.30;99.90
15690;DHT22;7945;48.816;11.506;2022-12-11T00:50:14;2.30;99.90
15690;DHT22;7945;48.816;11.506;2022-12-11T00:52:40;2.30;99.90
15690;DHT22;7945;48.816;11.506;2022-12-11T00:55:07;2.40;99.90
15690;DHT22;7945;48.816;11.506;2022-12-11T00:57:37;2.40;99.90
15690;DHT22;7945;48.816;11.506;2022-12-11T01:00:04;2.40;99.90
15690;DHT22;7945;48.816;11.506;2022-12-11T01:02:32;2.40;99.90
15690;DHT22;7945;48.816;11.506;2022-12-11T01:04:59;2.40;99.90
15690;DHT22;7945;48.816;11.506;2022-12-11T01:07:26;2.40;99.90
15690;DHT22;7945;48.816;11.506;2022-12-11T01:09:52;2.40;99.90
15690;DHT22;7945;48.816;11.506;2022-12-11T01:12:38;2.40;99.90
15690;DHT22;7945;48.816;11.506;2022-12-11T01:15:06;2.40;99.90
15690;DHT22;7945;48.816;11.506;2022-12-11T01:17:33;2.40;99.90
15690;DHT22;7945;48.816;11.506;2022-12-11T01:19:59;2.40;99.90
15690;DHT22;7945;48.816;11.506;2022-12-11T01:22:26;2.40;99.90
15690;DHT22;7945;48.816;11.506;2022-12-11T01:24:53;2.40;99.90
15690;DHT22;7945;48.816;11.506;2022-12-11T01:27:20;2.30;99.90
15690;DHT22;7945;48.816;11.506;2022-12-11T01:29:48;2.20;99.90
15690;DHT22;7945;48.816;11.506;2022-12-11T01:32:15;2.20;99.90
15690;DHT22;7945;48.816;11.506;2022-12-11T01:34:42;2.20;99.90
15690;DHT22;7945;48.816;11.506;2022-12-11T01:37:08;2.20;99.90
15690;DHT22;7945;48.816;11.506;2022-12-11T01:39:35;2.20;99.90
15690;DHT22;7945;48.816;11.506;2022-12-11T01:42:03;2.20;99.90
15690;DHT22;7945;48.816;11.506;2022-12-11T01:45:15;2.10;99.90
15690;DHT22;7945;48.816;11.506;2022-12-11T01:47:48;2.00;99.90
15690;DHT22;7945;48.816;11.506;2022-12-11T01:50:15;2.00;99.90
15690;DHT22;7945;48.816;11.506;2022-12-11T01:52:42;2.00;99.90
15690;DHT22;7945;48.816;11.506;2022-12-11T01:55:10;2.00;99.90
15690;DHT22;7945;48.816;11.506;2022-12-11T01:57:39;2.00;99.90
15690;DHT22;7945;48.816;11.506;2022-12-11T02:00:07;2.00;99.90
15690;DHT22;7945;48.816;11.506;2022-12-11T02:02:35;2.00;99.90
15690;DHT22;7945;48.816;11.506;2022-12-11T02:05:04;2.00;99.90
15690;DHT22;7945;48.816;11.506;2022-12-11T02:07:36;2.00;99.90
15690;DHT22;7945;48.816;11.506;2022-12-11T02:10:05;2.00;99.90
15690;DHT22;7945;48.816;11.506;2022-12-11T02:12:39;1.90;99.90
15690;DHT22;7945;48.816;11.506;2022-12-11T02:15:11;1.90;99.90
15690;DHT22;7945;48.816;11.506;2022-12-11T02:17:47;1.90;99.90
15690;DHT22;7945;48.816;11.506;2022-12-11T02:20:17;1.90;99.90
15690;DHT22;7945;48.816;11.506;2022-12-11T02:23:01;1.90;99.90
15690;DHT22;7945;48.816;11.506;2022-12-11T02:25:36;1.80;99.90
15690;DHT22;7945;48.816;11.506;2022-12-11T02:28:14;1.80;99.90
15690;DHT22;7945;48.816;11.506;2022-12-11T02:30:46;1.80;99.90
15690;DHT22;7945;48.816;11.506;2022-12-11T02:33:15;1.80;99.90
15690;DHT22;7945;48.816;11.506;2022-12-11T02:35:46;1.80;99.90
15690;DHT22;7945;48.816;11.506;2022-12-11T02:38:16;1.80;99.90
15690;DHT22;7945;48.816;11.506;2022-12-11T02:40:43;1.70;99.90
15690;DHT22;7945;48.816;11.506;2022-12-11T02:43:14;1.70;99.90
15690;DHT22;7945;48.816;11.506;2022-12-11T02:45:43;1.70;99.90
15690;DHT22;7945;48.816;11.506;2022-12-11T02:48:12;1.60;99.90
15690;DHT22;7945;48.816;11.506;2022-12-11T02:50:44;1.60;99.90
15690;DHT22;7945;48.816;11.506;2022-12-11T02:53:12;1.60;99.90
15690;DHT22;7945;48.816;11.506;2022-12-11T02:55:42;1.70;99.90
15690;DHT22;7945;48.816;11.506;2022-12-11T02:58:14;1.60;99.90
15690;DHT22;7945;48.816;11.506;2022-12-11T03:00:43;1.60;99.90
15690;DHT22;7945;48.816;11.506;2022-12-11T03:03:10;1.70;99.90
15690;DHT22;7945;48.816;11.506;2022-12-11T03:05:37;1.60;99.90
15690;DHT22;7945;48.816;11.506;2022-12-11T03:08:05;1.70;99.90
15690;DHT22;7945;48.816;11.506;2022-12-11T03:10:32;1.70;99.90
15690;DHT22;7945;48.816;11.506;2022-12-11T03:12:59;1.70;99.90
15690;DHT22;7945;48.816;11.506;2022-12-11T03:15:33;1.70;99.90
15690;DHT22;7945;48.816;11.506;2022-12-11T03:18:07;1.70;99.90
15690;DHT22;7945;48.816;11.506;2022-12-11T03:20:38;1.70;99.90
15690;DHT22;7945;48.816;11.506;2022-12-11T03:23:15;1.70;99.90
15690;DHT22;7945;48.816;11.506;2022-12-11T03:25:48;1.70;99.90
15690;DHT22;7945;48.816;11.506;2022-12-11T03:28:20;1.70;99.90
15690;DHT22;7945;48.816;11.506;2022-12-11T03:30:53;1.70;99.90
15690;DHT22;7945;48.816;11.506;2022-12-11T03:33:25;1.70;99.90
15690;DHT22;7945;48.816;11.506;2022-12-11T03:35:55;1.70;99.90
15690;DHT22;7945;48.816;11.506;2022-12-11T03:38:27;1.60;99.90
15690;DHT22;7945;48.816;11.506;2022-12-11T03:40:59;1.60;99.90
15690;DHT22;7945;48.816;11.506;2022-12-11T03:43:28;1.60;99.90
15690;DHT22;7945;48.816;11.506;2022-12-11T03:45:58;1.60;99.90
15690;DHT22;7945;48.816;11.506;2022-12-11T03:48:29;1.60;99.90
15690;DHT22;7945;48.816;11.506;2022-12-11T03:50:58;1.50;99.90
15690;DHT22;7945;48.816;11.506;2022-12-11T03:53:26;1.50;99.90
15690;DHT22;7945;48.816;11.506;2022-12-11T03:55:56;1.50;99.90
15690;DHT22;7945;48.816;11.506;2022-12-11T03:58:24;1.50;99.90
15690;DHT22;7945;48.816;11.506;2022-12-11T04:00:51;1.40;99.90
15690;DHT22;7945;48.816;11.506;2022-12-11T04:03:19;1.40;99.90
15690;DHT22;7945;48.816;11.506;2022-12-11T04:05:48;1.40;99.90
15690;DHT22;7945;48.816;11.506;2022-12-11T04:08:16;1.40;99.90
15690;DHT22;7945;48.816;11.506;2022-12-11T04:10:43;1.30;99.90
15690;DHT22;7945;48.816;11.506;2022-12-11T04:13:10;1.30;99.90
15690;DHT22;7945;48.816;11.506;2022-12-11T04:15:37;1.30;99.90
15690;DHT22;7945;48.816;11.506;2022-12-11T04:18:04;1.30;99.90
15690;DHT22;7945;48.816;11.506;2022-12-11T04:21:01;1.30;99.90
15690;DHT22;7945;48.816;11.506;2022-12-11T04:23:45;1.20;99.90
15690;DHT22;7945;48.816;11.506;2022-12-11T04:26:30;1.20;99.90
15690;DHT22;7945;48.816;11.506;2022-12-11T04:28:56;1.20;99.90
15690;DHT22;7945;48.816;11.506;2022-12-11T04:31:23;1.10;99.90
15690;DHT22;7945;48.816;11.506;2022-12-11T04:33:50;1.10;99.90
15690;DHT22;7945;48.816;11.506;2022-12-11T04:36:19;1.10;99.90
15690;DHT22;7945;48.816;11.506;2022-12-11T04:38:45;1.10;99.90
15690;DHT22;7945;48.816;11.506;2022-12-11T04:41:14;1.70;99.90
15690;DHT22;7945;48.816;11.506;2022-12-11T04:43:41;1.00;99.90
15690;DHT22;7945;48.816;11.506;2022-12-11T04:46:11;1.00;99.90
15690;DHT22;7945;48.816;11.506;2022-12-11T04:48:39;0.90;99.90
15690;DHT22;7945;48.816;11.506;2022-12-11T04:51:07;0.90;99.90
15690;DHT22;7945;48.816;11.506;2022-12-11T04:53:36;0.90;99.90
15690;DHT22;7945;48.816;11.506;2022-12-11T04:56:05;0.90;99.90
15690;DHT22;7945;48.816;11.506;2022-12-11T04:58:32;0.90;99.90
15690;DHT22;7945;48.816;11.506;2022-12-11T05:01:05;0.90;99.90
15690;DHT22;7945;48.816;11.506;2022-12-11T05:03:32;0.90;99.90
15690;DHT22;7945;48.816;11.506;2022-12-11T05:05:58;0.90;99.90
15690;DHT22;7945;48.816;11.506;2022-12-11T05:08:25;0.80;99.90
15690;DHT22;7945;48.816;11.506;2022-12-11T05:10:57;0.80;99.90
15690;DHT22;7945;48.816;11.506;2022-12-11T05:13:26;0.80;99.90
15690;DHT22;7945;48.816;11.506;2022-12-11T05:15:53;0.80;99.90
15690;DHT22;7945;48.816;11.506;2022-12-11T05:18:20;0.80;99.90
15690;DHT22;7945;48.816;11.506;2022-12-11T05:20:54;0.70;99.90
15690;DHT22;7945;48.816;11.506;2022-12-11T05:23:21;0.70;99.90
15690;DHT22;7945;48.816;11.506;2022-12-11T05:25:51;0.70;99.90
15690;DHT22;7945;48.816;11.506;2022-12-11T05:28:19;0.80;99.90
15690;DHT22;7945;48.816;11.506;2022-12-11T05:30:47;0.70;99.90
15690;DHT22;7945;48.816;11.506;2022-12-11T05:33:13;0.70;99.90
15690;DHT22;7945;48.816;11.506;2022-12-11T05:35:46;0.60;99.90
15690;DHT22;7945;48.816;11.506;2022-12-11T05:38:13;0.60;99.90
15690;DHT22;7945;48.816;11.506;2022-12-11T05:40:40;0.60;99.90
15690;DHT22;7945;48.816;11.506;2022-12-11T05:43:07;0.60;99.90
15690;DHT22;7945;48.816;11.506;2022-12-11T05:45:35;0.60;99.90
15690;DHT22;7945;48.816;11.506;2022-12-11T05:48:03;0.60;99.90
15690;DHT22;7945;48.816;11.506;2022-12-11T05:50:29;0.50;99.90
15690;DHT22;7945;48.816;11.506;2022-12-11T05:52:57;0.50;99.90
15690;DHT22;7945;48.816;11.506;2022-12-11T05:55:24;0.50;99.90
15690;DHT22;7945;48.816;11.506;2022-12-11T05:57:50;0.50;99.90
15690;DHT22;7945;48.816;11.506;2022-12-11T06:00:17;0.50;99.90
15690;DHT22;7945;48.816;11.506;2022-12-11T06:02:46;0.50;99.90
15690;DHT22;7945;48.816;11.506;2022-12-11T06:05:13;0.50;99.90
15690;DHT22;7945;48.816;11.506;2022-12-11T06:07:40;0.50;99.90
15690;DHT22;7945;48.816;11.506;2022-12-11T06:10:07;0.50;99.90
15690;DHT22;7945;48.816;11.506;2022-12-11T06:14:54;0.40;99.90
15690;DHT22;7945;48.816;11.506;2022-12-11T06:17:21;0.50;99.90
15690;DHT22;7945;48.816;11.506;2022-12-11T06:19:48;0.40;99.90
15690;DHT22;7945;48.816;11.506;2022-12-11T06:22:15;0.40;99.90
15690;DHT22;7945;48.816;11.506;2022-12-11T06:24:41;0.40;99.90
15690;DHT22;7945;48.816;11.506;2022-12-11T06:27:08;0.30;99.90
15690;DHT22;7945;48.816;11.506;2022-12-11T06:29:35;0.30;99.90
15690;DHT22;7945;48.816;11.506;2022-12-11T06:32:04;0.30;99.90
15690;DHT22;7945;48.816;11.506;2022-12-11T06:34:31;0.20;99.90
15690;DHT22;7945;48.816;11.506;2022-12-11T06:36:58;0.20;99.90
15690;DHT22;7945;48.816;11.506;2022-12-11T06:39:24;0.20;99.90
15690;DHT22;7945;48.816;11.506;2022-12-11T06:41:51;0.20;99.90
15690;DHT22;7945;48.816;11.506;2022-12-11T06:44:18;0.20;99.90
15690;DHT22;7945;48.816;11.506;2022-12-11T06:46:45;0.30;99.90
15690;DHT22;7945;48.816;11.506;2022-12-11T06:49:13;0.20;99.90
15690;DHT22;7945;48.816;11.506;2022-12-11T06:51:40;0.20;99.90
15690;DHT22;7945;48.816;11.506;2022-12-11T06:54:07;0.20;99.90
15690;DHT22;7945;48.816;11.506;2022-12-11T06:56:33;0.20;99.90
15690;DHT22;7945;48.816;11.506;2022-12-11T06:59:00;0.20;99.90
15690;DHT22;7945;48.816;11.506;2022-12-11T07:01:28;0.20;99.90
15690;DHT22;7945;48.816;11.506;2022-12-11T07:03:56;0.20;99.90
15690;DHT22;7945;48.816;11.506;2022-12-11T07:06:26;0.20;99.90
15690;DHT22;7945;48.816;11.506;2022-12-11T07:08:53;0.20;99.90
15690;DHT22;7945;48.816;11.506;2022-12-11T07:11:20;0.20;99.90
15690;DHT22;7945;48.816;11.506;2022-12-11T07:13:48;0.20;99.90
15690;DHT22;7945;48.816;11.506;2022-12-11T07:16:16;0.20;99.90
15690;DHT22;7945;48.816;11.506;2022-12-11T07:18:46;0.10;99.90
15690;DHT22;7945;48.816;11.506;2022-12-11T07:21:14;0.10;99.90
15690;DHT22;7945;48.816;11.506;2022-12-11T07:23:42;0.10;99.90
15690;DHT22;7945;48.816;11.506;2022-12-11T07:26:11;0.10;99.90
15690;DHT22;7945;48.816;11.506;2022-12-11T07:28:38;0.10;99.90
15690;DHT22;7945;48.816;11.506;2022-12-11T07:31:07;0.10;99.90
15690;DHT22;7945;48.816;11.506;2022-12-11T07:33:34;0.10;99.90
15690;DHT22;7945;48.816;11.506;2022-12-11T07:36:02;0.10;99.90
15690;DHT22;7945;48.816;11.506;2022-12-11T07:38:29;0.10;99.90
15690;DHT22;7945;48.816;11.506;2022-12-11T07:40:59;0.10;99.90
15690;DHT22;7945;48.816;11.506;2022-12-11T07:43:26;0.10;99.90
15690;DHT22;7945;48.816;11.506;2022-12-11T07:45:53;0.10;99.90
15690;DHT22;7945;48.816;11.506;2022-12-11T07:48:20;0.30;99.90
15690;DHT22;7945;48.816;11.506;2022-12-11T07:50:46;0.40;99.90
15690;DHT22;7945;48.816;11.506;2022-12-11T07:53:13;0.40;99.90
15690;DHT22;7945;48.816;11.506;2022-12-11T07:55:40;0.40;99.90
15690;DHT22;7945;48.816;11.506;2022-12-11T07:58:08;0.60;99.90
15690;DHT22;7945;48.816;11.506;2022-12-11T08:00:35;0.70;99.90
15690;DHT22;7945;48.816;11.506;2022-12-11T08:03:01;0.70;99.90
15690;DHT22;7945;48.816;11.506;2022-12-11T08:05:28;0.70;99.90
15690;DHT22;7945;48.816;11.506;2022-12-11T08:07:57;0.70;99.90
15690;DHT22;7945;48.816;11.506;2022-12-11T08:10:24;0.70;99.90
15690;DHT22;7945;48.816;11.506;2022-12-11T08:12:51;0.70;99.90
15690;DHT22;7945;48.816;11.506;2022-12-11T08:15:19;0.70;99.90
15690;DHT22;7945;48.816;11.506;2022-12-11T08:17:46;0.70;99.90
15690;DHT22;7945;48.816;11.506;2022-12-11T08:20:12;0.80;99.90
15690;DHT22;7945;48.816;11.506;2022-12-11T08:22:39;0.80;99.90
15690;DHT22;7945;48.816;11.506;2022-12-11T08:25:07;0.90;99.90
15690;DHT22;7945;48.816;11.506;2022-12-11T08:27:33;0.90;99.90
15690;DHT22;7945;48.816;11.506;2022-12-11T08:30:00;0.90;99.90
15690;DHT22;7945;48.816;11.506;2022-12-11T08:32:28;1.00;99.90
15690;DHT22;7945;48.816;11.506;2022-12-11T08:34:55;2.20;99.90
15690;DHT22;7945;48.816;11.506;2022-12-11T08:37:22;1.00;99.90
15690;DHT22;7945;48.816;11.506;2022-12-11T08:39:49;1.00;99.90
15690;DHT22;7945;48.816;11.506;2022-12-11T08:42:16;1.00;99.90
15690;DHT22;7945;48.816;11.506;2022-12-11T08:44:43;1.00;99.90
15690;DHT22;7945;48.816;11.506;2022-12-11T08:47:10;1.10;99.90
15690;DHT22;7945;48.816;11.506;2022-12-11T08:49:38;1.10;99.90
15690;DHT22;7945;48.816;11.506;2022-12-11T08:52:05;1.10;99.90
15690;DHT22;7945;48.816;11.506;2022-12-11T08:54:32;1.10;99.90
15690;DHT22;7945;48.816;11.506;2022-12-11T08:56:59;1.20;99.90
15690;DHT22;7945;48.816;11.506;2022-12-11T08:59:25;1.20;99.90
15690;DHT22;7945;48.816;11.506;2022-12-11T09:01:54;1.20;99.90
15690;DHT22;7945;48.816;11.506;2022-12-11T09:04:21;1.20;99.90
15690;DHT22;7945;48.816;11.506;2022-12-11T09:06:49;1.20;99.90
15690;DHT22;7945;48.816;11.506;2022-12-11T09:09:16;1.20;99.90
15690;DHT22;7945;48.816;11.506;2022-12-11T09:11:43;1.20;99.90
15690;DHT22;7945;48.816;11.506;2022-12-11T09:14:09;1.30;99.90
15690;DHT22;7945;48.816;11.506;2022-12-11T09:16:38;1.30;99.90
15690;DHT22;7945;48.816;11.506;2022-12-11T09:19:07;1.30;99.90
15690;DHT22;7945;48.816;11.506;2022-12-11T09:21:34;1.40;99.90
15690;DHT22;7945;48.816;11.506;2022-12-11T09:24:02;1.50;99.90
15690;DHT22;7945;48.816;11.506;2022-12-11T09:26:30;1.50;99.90
15690;DHT22;7945;48.816;11.506;2022-12-11T09:28:57;1.50;99.90
15690;DHT22;7945;48.816;11.506;2022-12-11T09:31:26;1.60;99.90
15690;DHT22;7945;48.816;11.506;2022-12-11T09:33:54;1.60;99.90
15690;DHT22;7945;48.816;11.506;2022-12-11T09:36:22;1.70;99.90
15690;DHT22;7945;48.816;11.506;2022-12-11T09:38:49;1.70;99.90
15690;DHT22;7945;48.816;11.506;2022-12-11T09:41:39;1.80;99.90
15690;DHT22;7945;48.816;11.506;2022-12-11T09:44:26;1.80;99.90
15690;DHT22;7945;48.816;11.506;2022-12-11T09:46:56;1.80;99.90
15690;DHT22;7945;48.816;11.506;2022-12-11T09:49:29;1.80;99.90
15690;DHT22;7945;48.816;11.506;2022-12-11T09:52:05;1.90;99.90
15690;DHT22;7945;48.816;11.506;2022-12-11T09:54:33;2.00;99.90
15690;DHT22;7945;48.816;11.506;2022-12-11T09:57:10;1.90;99.90
15690;DHT22;7945;48.816;11.506;2022-12-11T09:59:47;2.60;99.90
15690;DHT22;7945;48.816;11.506;2022-12-11T10:02:34;1.90;99.90
15690;DHT22;7945;48.816;11.506;2022-12-11T10:05:11;1.80;99.90
15690;DHT22;7945;48.816;11.506;2022-12-11T10:07:44;1.80;99.90
15690;DHT22;7945;48.816;11.506;2022-12-11T10:10:20;1.80;99.90
15690;DHT22;7945;48.816;11.506;2022-12-11T10:12:59;1.80;99.90
15690;DHT22;7945;48.816;11.506;2022-12-11T10:15:36;1.70;99.90
15690;DHT22;7945;48.816;11.506;2022-12-11T10:18:10;1.70;99.90
15690;DHT22;7945;48.816;11.506;2022-12-11T10:20:39;1.70;99.90
15690;DHT22;7945;48.816;11.506;2022-12-11T10:23:08;1.70;99.90
15690;DHT22;7945;48.816;11.506;2022-12-11T10:25:41;1.70;99.90
15690;DHT22;7945;48.816;11.506;2022-12-11T10:28:12;1.70;99.90
15690;DHT22;7945;48.816;11.506;2022-12-11T10:30:44;1.70;99.90
15690;DHT22;7945;48.816;11.506;2022-12-11T10:33:19;1.70;99.90
15690;DHT22;7945;48.816;11.506;2022-12-11T10:35:49;1.70;99.90
15690;DHT22;7945;48.816;11.506;2022-12-11T10:38:20;1.70;99.90
15690;DHT22;7945;48.816;11.506;2022-12-11T10:40:50;1.60;99.90
15690;DHT22;7945;48.816;11.506;2022-12-11T10:43:19;1.70;99.90
15690;DHT22;7945;48.816;11.506;2022-12-11T10:45:50;1.70;99.90
15690;DHT22;7945;48.816;11.506;2022-12-11T10:48:17;1.70;99.90
15690;DHT22;7945;48.816;11.506;2022-12-11T10:50:55;1.70;99.90
15690;DHT22;7945;48.816;11.506;2022-12-11T10:53:23;1.70;99.90
15690;DHT22;7945;48.816;11.506;2022-12-11T10:55:50;1.70;99.90
15690;DHT22;7945;48.816;11.506;2022-12-11T10:58:21;1.70;99.90
15690;DHT22;7945;48.816;11.506;2022-12-11T11:01:02;1.80;99.90
15690;DHT22;7945;48.816;11.506;2022-12-11T11:03:29;1.80;99.90
15690;DHT22;7945;48.816;11.506;2022-12-11T11:06:04;1.70;99.90
15690;DHT22;7945;48.816;11.506;2022-12-11T11:08:39;1.60;99.90
15690;DHT22;7945;48.816;11.506;2022-12-11T11:11:20;1.80;99.90
15690;DHT22;7945;48.816;11.506;2022-12-11T11:13:48;1.80;99.90
15690;DHT22;7945;48.816;11.506;2022-12-11T11:16:17;1.80;99.90
15690;DHT22;7945;48.816;11.506;2022-12-11T11:18:50;1.90;99.90
15690;DHT22;7945;48.816;11.506;2022-12-11T11:21:19;1.80;99.90
15690;DHT22;7945;48.816;11.506;2022-12-11T11:23:47;1.80;99.90
15690;DHT22;7945;48.816;11.506;2022-12-11T11:26:14;1.90;99.90
15690;DHT22;7945;48.816;11.506;2022-12-11T11:28:48;2.00;99.90
15690;DHT22;7945;48.816;11.506;2022-12-11T11:31:16;2.10;99.90
15690;DHT22;7945;48.816;11.506;2022-12-11T11:33:48;2.10;99.90
15690;DHT22;7945;48.816;11.506;2022-12-11T11:36:20;2.10;99.90
15690;DHT22;7945;48.816;11.506;2022-12-11T11:38:53;2.20;99.90
15690;DHT22;7945;48.816;11.506;2022-12-11T11:41:26;2.30;99.90
15690;DHT22;7945;48.816;11.506;2022-12-11T11:43:57;2.40;99.90
15690;DHT22;7945;48.816;11.506;2022-12-11T11:46:29;2.40;99.90
15690;DHT22;7945;48.816;11.506;2022-12-11T11:49:03;2.30;99.90
15690;DHT22;7945;48.816;11.506;2022-12-11T11:51:34;2.30;99.90
15690;DHT22;7945;48.816;11.506;2022-12-11T11:54:11;2.20;99.90
15690;DHT22;7945;48.816;11.506;2022-12-11T11:56:41;2.10;99.90
15690;DHT22;7945;48.816;11.506;2022-12-11T11:59:16;2.00;99.90
15690;DHT22;7945;48.816;11.506;2022-12-11T12:01:46;2.00;99.90
15690;DHT22;7945;48.816;11.506;2022-12-11T12:04:13;1.90;99.90
15690;DHT22;7945;48.816;11.506;2022-12-11T12:06:54;1.80;99.90
15690;DHT22;7945;48.816;11.506;2022-12-11T12:09:32;1.70;99.90
15690;DHT22;7945;48.816;11.506;2022-12-11T12:12:12;1.70;99.90
15690;DHT22;7945;48.816;11.506;2022-12-11T12:14:51;1.70;99.90
15690;DHT22;7945;48.816;11.506;2022-12-11T12:17:25;1.70;99.90
15690;DHT22;7945;48.816;11.506;2022-12-11T12:20:02;1.70;99.90
15690;DHT22;7945;48.816;11.506;2022-12-11T12:22:48;1.70;99.90
15690;DHT22;7945;48.816;11.506;2022-12-11T12:25:23;1.70;99.90
15690;DHT22;7945;48.816;11.506;2022-12-11T12:27:57;1.80;99.90
15690;DHT22;7945;48.816;11.506;2022-12-11T12:30:30;1.80;99.90
15690;DHT22;7945;48.816;11.506;2022-12-11T12:33:14;1.90;99.90
15690;DHT22;7945;48.816;11.506;2022-12-11T12:35:52;1.90;99.90
15690;DHT22;7945;48.816;11.506;2022-12-11T12:38:28;2.00;99.90
15690;DHT22;7945;48.816;11.506;2022-12-11T12:41:03;2.00;99.90
15690;DHT22;7945;48.816;11.506;2022-12-11T12:44:03;2.10;99.90
15690;DHT22;7945;48.816;11.506;2022-12-11T12:46:43;2.20;99.90
15690;DHT22;7945;48.816;11.506;2022-12-11T12:49:15;2.30;99.90
15690;DHT22;7945;48.816;11.506;2022-12-11T12:51:42;2.30;99.90
15690;DHT22;7945;48.816;11.506;2022-12-11T12:54:14;2.30;99.90
15690;DHT22;7945;48.816;11.506;2022-12-11T12:56:43;2.40;99.90
15690;DHT22;7945;48.816;11.506;2022-12-11T12:59:19;2.40;99.90
15690;DHT22;7945;48.816;11.506;2022-12-11T13:01:50;2.40;99.90
15690;DHT22;7945;48.816;11.506;2022-12-11T13:04:32;2.40;99.90
15690;DHT22;7945;48.816;11.506;2022-12-11T13:07:14;2.30;99.90
15690;DHT22;7945;48.816;11.506;2022-12-11T13:09:41;2.10;99.90
15690;DHT22;7945;48.816;11.506;2022-12-11T13:12:13;2.10;99.90
15690;DHT22;7945;48.816;11.506;2022-12-11T13:14:40;2.10;99.90
15690;DHT22;7945;48.816;11.506;2022-12-11T13:17:25;2.10;99.90
15690;DHT22;7945;48.816;11.506;2022-12-11T13:20:12;2.10;99.90
15690;DHT22;7945;48.816;11.506;2022-12-11T13:22:52;2.10;99.90
15690;DHT22;7945;48.816;11.506;2022-12-11T13:25:25;2.10;99.90
15690;DHT22;7945;48.816;11.506;2022-12-11T13:28:04;2.10;99.90
15690;DHT22;7945;48.816;11.506;2022-12-11T13:30:31;2.00;99.90
15690;DHT22;7945;48.816;11.506;2022-12-11T13:33:03;2.00;99.90
15690;DHT22;7945;48.816;11.506;2022-12-11T13:35:32;2.00;99.90
15690;DHT22;7945;48.816;11.506;2022-12-11T13:38:03;2.00;99.90
15690;DHT22;7945;48.816;11.506;2022-12-11T13:40:38;2.10;99.90
15690;DHT22;7945;48.816;11.506;2022-12-11T13:43:10;2.10;99.90
15690;DHT22;7945;48.816;11.506;2022-12-11T13:45:45;2.10;99.90
15690;DHT22;7945;48.816;11.506;2022-12-11T13:48:20;2.20;99.90
15690;DHT22;7945;48.816;11.506;2022-12-11T13:50:49;2.20;99.90
15690;DHT22;7945;48.816;11.506;2022-12-11T13:53:17;2.10;99.90
15690;DHT22;7945;48.816;11.506;2022-12-11T13:55:44;2.10;99.90
15690;DHT22;7945;48.816;11.506;2022-12-11T13:58:16;2.10;99.90
15690;DHT22;7945;48.816;11.506;2022-12-11T14:01:02;2.20;99.90
15690;DHT22;7945;48.816;11.506;2022-12-11T14:03:31;2.20;99.90
15690;DHT22;7945;48.816;11.506;2022-12-11T14:05:59;2.10;99.90
15690;DHT22;7945;48.816;11.506;2022-12-11T14:08:31;2.20;99.90
15690;DHT22;7945;48.816;11.506;2022-12-11T14:10:59;2.20;99.90
15690;DHT22;7945;48.816;11.506;2022-12-11T14:13:31;2.10;99.90
15690;DHT22;7945;48.816;11.506;2022-12-11T14:15:59;2.20;99.90
15690;DHT22;7945;48.816;11.506;2022-12-11T14:18:28;2.20;99.90
15690;DHT22;7945;48.816;11.506;2022-12-11T14:20:58;2.10;99.90
15690;DHT22;7945;48.816;11.506;2022-12-11T14:23:26;2.10;99.90
15690;DHT22;7945;48.816;11.506;2022-12-11T14:25:54;2.10;99.90
15690;DHT22;7945;48.816;11.506;2022-12-11T14:28:22;2.10;99.90
15690;DHT22;7945;48.816;11.506;2022-12-11T14:30:54;2.00;99.90
15690;DHT22;7945;48.816;11.506;2022-12-11T14:33:26;2.00;99.90
15690;DHT22;7945;48.816;11.506;2022-12-11T14:35:54;2.00;99.90
15690;DHT22;7945;48.816;11.506;2022-12-11T14:38:26;2.00;99.90
15690;DHT22;7945;48.816;11.506;2022-12-11T14:40:57;2.00;99.90
15690;DHT22;7945;48.816;11.506;2022-12-11T14:43:27;1.90;99.90
15690;DHT22;7945;48.816;11.506;2022-12-11T14:45:59;1.90;99.90
15690;DHT22;7945;48.816;11.506;2022-12-11T14:48:29;1.90;99.90
15690;DHT22;7945;48.816;11.506;2022-12-11T14:51:00;1.90;99.90
15690;DHT22;7945;48.816;11.506;2022-12-11T14:53:33;1.80;99.90
15690;DHT22;7945;48.816;11.506;2022-12-11T14:56:03;1.80;99.90
15690;DHT22;7945;48.816;11.506;2022-12-11T14:58:36;1.80;99.90
15690;DHT22;7945;48.816;11.506;2022-12-11T15:01:05;1.70;99.90
15690;DHT22;7945;48.816;11.506;2022-12-11T15:03:34;1.70;99.90
15690;DHT22;7945;48.816;11.506;2022-12-11T15:06:02;1.70;99.90
15690;DHT22;7945;48.816;11.506;2022-12-11T15:08:32;1.70;99.90
15690;DHT22;7945;48.816;11.506;2022-12-11T15:11:05;1.70;99.90
15690;DHT22;7945;48.816;11.506;2022-12-11T15:13:35;1.70;99.90
15690;DHT22;7945;48.816;11.506;2022-12-11T15:16:03;1.70;99.90
15690;DHT22;7945;48.816;11.506;2022-12-11T15:18:33;1.70;99.90
15690;DHT22;7945;48.816;11.506;2022-12-11T15:21:03;1.70;99.90
15690;DHT22;7945;48.816;11.506;2022-12-11T15:23:37;1.70;99.90
15690;DHT22;7945;48.816;11.506;2022-12-11T15:26:05;1.70;99.90
15690;DHT22;7945;48.816;11.506;2022-12-11T15:28:34;1.70;99.90
15690;DHT22;7945;48.816;11.506;2022-12-11T15:31:04;1.70;99.90
15690;DHT22;7945;48.816;11.506;2022-12-11T15:33:31;1.70;99.90
15690;DHT22;7945;48.816;11.506;2022-12-11T15:36:03;1.70;99.90
15690;DHT22;7945;48.816;11.506;2022-12-11T15:38:34;1.60;99.90
15690;DHT22;7945;48.816;11.506;2022-12-11T15:41:02;1.50;99.90
15690;DHT22;7945;48.816;11.506;2022-12-11T15:43:33;1.50;99.90
15690;DHT22;7945;48.816;11.506;2022-12-11T15:46:01;1.40;99.90
15690;DHT22;7945;48.816;11.506;2022-12-11T15:48:28;1.40;99.90
15690;DHT22;7945;48.816;11.506;2022-12-11T15:50:55;1.30;99.90
15690;DHT22;7945;48.816;11.506;2022-12-11T15:53:22;1.30;99.90
15690;DHT22;7945;48.816;11.506;2022-12-11T15:55:50;1.40;99.90
15690;DHT22;7945;48.816;11.506;2022-12-11T15:58:20;1.40;99.90
15690;DHT22;7945;48.816;11.506;2022-12-11T16:00:49;1.40;99.90
15690;DHT22;7945;48.816;11.506;2022-12-11T16:03:17;1.40;99.90
15690;DHT22;7945;48.816;11.506;2022-12-11T16:05:45;1.40;99.90